sensor_id;sensor_type;location;lat;lon;timestamp;P1;durP1;ratioP1;P2;durP2;ratioP2
37517;SDS011;23366;52.498;13.446;2024-01-15T00:01:42;8.98;;;4.63;;
37517;SDS011;23366;52.498;13.446;2024-01-15T00:04:09;11.73;;;4.32;;
37517;SDS011;23366;52.498;13.446;2024-01-15T00:06:35;8.57;;;4.55;;
37517;SDS011;23366;52.498;13.446;2024-01-15T00:09:01;6.65;;;4.47;;
37517;SDS011;23366;52.498;13.446;2024-01-15T00:11:27;6.03;;;3.88;;
37517;SDS011;23366;52.498;13.446;2024-01-15T00:13:53;13.55;;;5.47;;
37517;SDS011;23366;52.498;13.446;2024-01-15T00:16:18;8.68;;;4.82;;
37517;SDS011;23366;52.498;13.446;2024-01-15T00:18:44;8.32;;;4.65;;
37517;SDS011;23366;52.498;13.446;2024-01-15T00:21:10;8.90;;;4.00;;
37517;SDS011;23366;52.498;13.446;2024-01-15T00:23:36;11.23;;;5.03;;
37517;SDS011;23366;52.498;13.446;2024-01-15T00:26:02;13.98;;;6.25;;
37517;SDS011;23366;52.498;13.446;2024-01-15T00:28:28;10.07;;;4.95;;
37517;SDS011;23366;52.498;13.446;2024-01-15T00:30:54;11.45;;;5.43;;
37517;SDS011;23366;52.498;13.446;2024-01-15T00:33:20;10.75;;;4.78;;
37517;SDS011;23366;52.498;13.446;2024-01-15T00:35:46;8.82;;;4.65;;
37517;SDS011;23366;52.498;13.446;2024-01-15T00:38:12;8.98;;;4.45;;
37517;SDS011;23366;52.498;13.446;2024-01-15T00:40:38;12.30;;;5.32;;
37517;SDS011;23366;52.498;13.446;2024-01-15T00:43:04;8.52;;;5.10;;
37517;SDS011;23366;52.498;13.446;2024-01-15T00:45:32;8.48;;;4.57;;
37517;SDS011;23366;52.498;13.446;2024-01-15T00:47:58;8.95;;;4.95;;
37517;SDS011;23366;52.498;13.446;2024-01-15T00:50:26;8.18;;;4.35;;
37517;SDS011;23366;52.498;13.446;2024-01-15T00:52:51;8.60;;;4.70;;
37517;SDS011;23366;52.498;13.446;2024-01-15T00:55:17;7.60;;;4.18;;
37517;SDS011;23366;52.498;13.446;2024-01-15T00:57:43;10.88;;;5.85;;
37517;SDS011;23366;52.498;13.446;2024-01-15T01:00:09;6.88;;;3.67;;
37517;SDS011;23366;52.498;13.446;2024-01-15T01:02:35;14.18;;;4.82;;
37517;SDS011;23366;52.498;13.446;2024-01-15T01:05:01;11.13;;;4.28;;
37517;SDS011;23366;52.498;13.446;2024-01-15T01:07:28;10.60;;;5.00;;
37517;SDS011;23366;52.498;13.446;2024-01-15T01:09:54;12.60;;;4.95;;
37517;SDS011;23366;52.498;13.446;2024-01-15T01:12:20;8.02;;;3.92;;
37517;SDS011;23366;52.498;13.446;2024-01-15T01:14:46;9.35;;;3.65;;
37517;SDS011;23366;52.498;13.446;2024-01-15T01:17:12;14.32;;;4.32;;
37517;SDS011;23366;52.498;13.446;2024-01-15T01:19:38;13.40;;;4.18;;
37517;SDS011;23366;52.498;13.446;2024-01-15T01:22:04;9.43;;;4.25;;
37517;SDS011;23366;52.498;13.446;2024-01-15T01:24:30;8.32;;;4.47;;
37517;SDS011;23366;52.498;13.446;2024-01-15T01:26:56;8.82;;;4.78;;
37517;SDS011;23366;52.498;13.446;2024-01-15T01:29:22;6.15;;;3.38;;
37517;SDS011;23366;52.498;13.446;2024-01-15T01:31:48;10.63;;;5.13;;
37517;SDS011;23366;52.498;13.446;2024-01-15T01:34:15;7.97;;;5.20;;
37517;SDS011;23366;52.498;13.446;2024-01-15T01:36:41;7.40;;;4.65;;
37517;SDS011;23366;52.498;13.446;2024-01-15T01:39:07;10.35;;;5.00;;
37517;SDS011;23366;52.498;13.446;2024-01-15T01:41:34;8.80;;;4.03;;
37517;SDS011;23366;52.498;13.446;2024-01-15T01:43:59;13.18;;;3.83;;
37517;SDS011;23366;52.498;13.446;2024-01-15T01:46:26;8.45;;;4.93;;
37517;SDS011;23366;52.498;13.446;2024-01-15T01:48:53;7.00;;;3.83;;
37517;SDS011;23366;52.498;13.446;2024-01-15T01:51:19;8.48;;;4.03;;
37517;SDS011;23366;52.498;13.446;2024-01-15T01:53:46;10.70;;;5.93;;
37517;SDS011;23366;52.498;13.446;2024-01-15T01:56:12;12.10;;;5.75;;
37517;SDS011;23366;52.498;13.446;2024-01-15T01:58:38;10.98;;;4.38;;
37517;SDS011;23366;52.498;13.446;2024-01-15T02:01:04;12.02;;;6.30;;
37517;SDS011;23366;52.498;13.446;2024-01-15T02:03:31;8.77;;;3.75;;
37517;SDS011;23366;52.498;13.446;2024-01-15T02:05:57;10.90;;;5.90;;
37517;SDS011;23366;52.498;13.446;2024-01-15T02:08:23;6.78;;;4.60;;
37517;SDS011;23366;52.498;13.446;2024-01-15T02:10:49;9.85;;;5.15;;
37517;SDS011;23366;52.498;13.446;2024-01-15T02:13:15;9.32;;;5.05;;
37517;SDS011;23366;52.498;13.446;2024-01-15T02:15:41;11.85;;;4.53;;
37517;SDS011;23366;52.498;13.446;2024-01-15T02:18:07;8.00;;;4.28;;
37517;SDS011;23366;52.498;13.446;2024-01-15T02:20:33;8.70;;;4.53;;
37517;SDS011;23366;52.498;13.446;2024-01-15T02:25:38;10.95;;;6.20;;
37517;SDS011;23366;52.498;13.446;2024-01-15T02:28:05;10.88;;;5.22;;
37517;SDS011;23366;52.498;13.446;2024-01-15T02:30:31;8.40;;;5.20;;
37517;SDS011;23366;52.498;13.446;2024-01-15T02:32:57;8.00;;;4.40;;
37517;SDS011;23366;52.498;13.446;2024-01-15T02:35:23;7.88;;;4.60;;
37517;SDS011;23366;52.498;13.446;2024-01-15T02:37:49;6.85;;;3.92;;
37517;SDS011;23366;52.498;13.446;2024-01-15T02:40:15;6.82;;;3.78;;
37517;SDS011;23366;52.498;13.446;2024-01-15T02:42:41;10.48;;;5.13;;
37517;SDS011;23366;52.498;13.446;2024-01-15T02:45:07;5.68;;;3.63;;
37517;SDS011;23366;52.498;13.446;2024-01-15T02:47:33;12.52;;;4.10;;
37517;SDS011;23366;52.498;13.446;2024-01-15T02:49:59;6.68;;;3.90;;
37517;SDS011;23366;52.498;13.446;2024-01-15T02:52:25;9.20;;;3.95;;
37517;SDS011;23366;52.498;13.446;2024-01-15T02:54:51;9.55;;;4.07;;
37517;SDS011;23366;52.498;13.446;2024-01-15T02:57:17;5.75;;;3.00;;
37517;SDS011;23366;52.498;13.446;2024-01-15T02:59:43;10.35;;;4.88;;
37517;SDS011;23366;52.498;13.446;2024-01-15T03:02:09;8.77;;;3.28;;
37517;SDS011;23366;52.498;13.446;2024-01-15T03:04:35;8.27;;;4.28;;
37517;SDS011;23366;52.498;13.446;2024-01-15T03:07:01;13.70;;;4.07;;
37517;SDS011;23366;52.498;13.446;2024-01-15T03:09:27;6.18;;;3.10;;
37517;SDS011;23366;52.498;13.446;2024-01-15T03:11:52;6.70;;;4.20;;
37517;SDS011;23366;52.498;13.446;2024-01-15T03:14:18;5.95;;;3.13;;
37517;SDS011;23366;52.498;13.446;2024-01-15T03:16:45;7.57;;;3.53;;
37517;SDS011;23366;52.498;13.446;2024-01-15T03:19:11;8.10;;;3.28;;
37517;SDS011;23366;52.498;13.446;2024-01-15T03:21:37;6.43;;;3.60;;
37517;SDS011;23366;52.498;13.446;2024-01-15T03:24:03;6.55;;;2.95;;
37517;SDS011;23366;52.498;13.446;2024-01-15T03:26:29;8.63;;;4.47;;
37517;SDS011;23366;52.498;13.446;2024-01-15T03:28:55;8.68;;;3.80;;
37517;SDS011;23366;52.498;13.446;2024-01-15T03:31:21;7.47;;;3.75;;
37517;SDS011;23366;52.498;13.446;2024-01-15T03:33:47;7.65;;;4.43;;
37517;SDS011;23366;52.498;13.446;2024-01-15T03:36:12;6.25;;;2.97;;
37517;SDS011;23366;52.498;13.446;2024-01-15T03:38:40;9.40;;;4.28;;
37517;SDS011;23366;52.498;13.446;2024-01-15T03:41:07;5.97;;;3.20;;
37517;SDS011;23366;52.498;13.446;2024-01-15T03:43:33;6.55;;;3.55;;
37517;SDS011;23366;52.498;13.446;2024-01-15T03:45:59;7.28;;;3.25;;
37517;SDS011;23366;52.498;13.446;2024-01-15T03:48:24;6.22;;;4.03;;
37517;SDS011;23366;52.498;13.446;2024-01-15T03:50:50;8.40;;;3.63;;
37517;SDS011;23366;52.498;13.446;2024-01-15T03:53:16;6.38;;;3.05;;
37517;SDS011;23366;52.498;13.446;2024-01-15T03:55:42;7.07;;;3.22;;
37517;SDS011;23366;52.498;13.446;2024-01-15T03:58:08;7.68;;;4.00;;
37517;SDS011;23366;52.498;13.446;2024-01-15T04:00:34;7.43;;;3.70;;
37517;SDS011;23366;52.498;13.446;2024-01-15T04:03:00;6.72;;;3.80;;
37517;SDS011;23366;52.498;13.446;2024-01-15T04:05:26;4.63;;;3.08;;
37517;SDS011;23366;52.498;13.446;2024-01-15T04:07:52;8.18;;;4.07;;
37517;SDS011;23366;52.498;13.446;2024-01-15T04:10:18;3.20;;;2.00;;
37517;SDS011;23366;52.498;13.446;2024-01-15T04:12:44;14.32;;;3.80;;
37517;SDS011;23366;52.498;13.446;2024-01-15T04:15:13;5.30;;;2.85;;
37517;SDS011;23366;52.498;13.446;2024-01-15T04:17:38;6.18;;;3.85;;
37517;SDS011;23366;52.498;13.446;2024-01-15T04:20:05;4.50;;;2.75;;
37517;SDS011;23366;52.498;13.446;2024-01-15T04:22:31;6.72;;;3.05;;
37517;SDS011;23366;52.498;13.446;2024-01-15T04:24:58;4.25;;;2.03;;
37517;SDS011;23366;52.498;13.446;2024-01-15T04:27:24;4.10;;;1.77;;
37517;SDS011;23366;52.498;13.446;2024-01-15T04:29:50;5.65;;;3.17;;
37517;SDS011;23366;52.498;13.446;2024-01-15T04:32:16;5.47;;;2.88;;
37517;SDS011;23366;52.498;13.446;2024-01-15T04:34:41;5.95;;;3.30;;
37517;SDS011;23366;52.498;13.446;2024-01-15T04:37:07;7.57;;;2.45;;
37517;SDS011;23366;52.498;13.446;2024-01-15T04:39:33;6.40;;;2.72;;
37517;SDS011;23366;52.498;13.446;2024-01-15T04:41:59;8.88;;;1.98;;
37517;SDS011;23366;52.498;13.446;2024-01-15T04:44:25;2.85;;;1.98;;
37517;SDS011;23366;52.498;13.446;2024-01-15T04:46:51;4.47;;;2.88;;
37517;SDS011;23366;52.498;13.446;2024-01-15T04:49:17;3.33;;;2.20;;
37517;SDS011;23366;52.498;13.446;2024-01-15T04:51:43;4.38;;;2.53;;
37517;SDS011;23366;52.498;13.446;2024-01-15T04:54:09;5.90;;;1.63;;
37517;SDS011;23366;52.498;13.446;2024-01-15T04:56:35;6.97;;;2.92;;
37517;SDS011;23366;52.498;13.446;2024-01-15T04:59:01;3.65;;;2.08;;
37517;SDS011;23366;52.498;13.446;2024-01-15T05:01:30;16.30;;;2.95;;
37517;SDS011;23366;52.498;13.446;2024-01-15T05:03:56;4.90;;;2.03;;
37517;SDS011;23366;52.498;13.446;2024-01-15T05:06:22;3.95;;;1.83;;
37517;SDS011;23366;52.498;13.446;2024-01-15T05:08:48;5.47;;;1.48;;
37517;SDS011;23366;52.498;13.446;2024-01-15T05:11:14;2.92;;;1.52;;
37517;SDS011;23366;52.498;13.446;2024-01-15T05:13:40;4.82;;;1.70;;
37517;SDS011;23366;52.498;13.446;2024-01-15T05:16:06;8.25;;;1.38;;
37517;SDS011;23366;52.498;13.446;2024-01-15T05:18:32;5.88;;;1.92;;
37517;SDS011;23366;52.498;13.446;2024-01-15T05:20:58;1.48;;;1.38;;
37517;SDS011;23366;52.498;13.446;2024-01-15T05:23:24;7.88;;;2.13;;
37517;SDS011;23366;52.498;13.446;2024-01-15T05:25:50;3.60;;;2.75;;
37517;SDS011;23366;52.498;13.446;2024-01-15T05:28:16;6.28;;;1.45;;
37517;SDS011;23366;52.498;13.446;2024-01-15T05:30:42;9.73;;;3.08;;
37517;SDS011;23366;52.498;13.446;2024-01-15T05:33:08;12.77;;;2.30;;
37517;SDS011;23366;52.498;13.446;2024-01-15T05:35:34;1.48;;;1.10;;
37517;SDS011;23366;52.498;13.446;2024-01-15T05:38:00;6.97;;;2.20;;
37517;SDS011;23366;52.498;13.446;2024-01-15T05:40:26;3.13;;;1.58;;
37517;SDS011;23366;52.498;13.446;2024-01-15T05:42:52;3.75;;;2.08;;
37517;SDS011;23366;52.498;13.446;2024-01-15T05:45:18;10.60;;;1.27;;
37517;SDS011;23366;52.498;13.446;2024-01-15T05:47:44;6.20;;;1.77;;
37517;SDS011;23366;52.498;13.446;2024-01-15T05:50:10;3.40;;;1.08;;
37517;SDS011;23366;52.498;13.446;2024-01-15T05:52:36;2.97;;;0.95;;
37517;SDS011;23366;52.498;13.446;2024-01-15T05:55:02;2.45;;;1.13;;
37517;SDS011;23366;52.498;13.446;2024-01-15T05:57:28;2.63;;;1.88;;
37517;SDS011;23366;52.498;13.446;2024-01-15T05:59:54;3.95;;;1.48;;
37517;SDS011;23366;52.498;13.446;2024-01-15T06:02:20;2.47;;;0.90;;
37517;SDS011;23366;52.498;13.446;2024-01-15T06:04:46;3.80;;;1.20;;
37517;SDS011;23366;52.498;13.446;2024-01-15T06:07:12;3.17;;;2.70;;
37517;SDS011;23366;52.498;13.446;2024-01-15T06:09:38;4.63;;;1.98;;
37517;SDS011;23366;52.498;13.446;2024-01-15T06:12:04;0.90;;;0.73;;
37517;SDS011;23366;52.498;13.446;2024-01-15T06:14:30;1.80;;;1.08;;
37517;SDS011;23366;52.498;13.446;2024-01-15T06:16:56;4.07;;;1.55;;
37517;SDS011;23366;52.498;13.446;2024-01-15T06:19:22;5.28;;;2.75;;
37517;SDS011;23366;52.498;13.446;2024-01-15T06:21:48;2.60;;;1.20;;
37517;SDS011;23366;52.498;13.446;2024-01-15T06:24:14;6.05;;;1.48;;
37517;SDS011;23366;52.498;13.446;2024-01-15T06:26:42;10.27;;;1.92;;
37517;SDS011;23366;52.498;13.446;2024-01-15T06:29:08;2.25;;;0.65;;
37517;SDS011;23366;52.498;13.446;2024-01-15T06:31:34;1.10;;;0.93;;
37517;SDS011;23366;52.498;13.446;2024-01-15T06:34:00;3.17;;;1.67;;
37517;SDS011;23366;52.498;13.446;2024-01-15T06:36:26;2.28;;;1.05;;
37517;SDS011;23366;52.498;13.446;2024-01-15T06:38:52;3.90;;;1.55;;
37517;SDS011;23366;52.498;13.446;2024-01-15T06:41:18;7.53;;;1.30;;
37517;SDS011;23366;52.498;13.446;2024-01-15T06:43:44;1.55;;;1.30;;
37517;SDS011;23366;52.498;13.446;2024-01-15T06:46:10;2.15;;;1.15;;
37517;SDS011;23366;52.498;13.446;2024-01-15T06:48:35;2.33;;;0.80;;
37517;SDS011;23366;52.498;13.446;2024-01-15T06:51:02;3.47;;;1.48;;
37517;SDS011;23366;52.498;13.446;2024-01-15T06:53:28;3.00;;;1.35;;
37517;SDS011;23366;52.498;13.446;2024-01-15T06:55:54;6.80;;;1.00;;
37517;SDS011;23366;52.498;13.446;2024-01-15T06:58:19;1.30;;;0.93;;
37517;SDS011;23366;52.498;13.446;2024-01-15T07:00:45;2.65;;;2.03;;
37517;SDS011;23366;52.498;13.446;2024-01-15T07:03:11;1.63;;;0.82;;
37517;SDS011;23366;52.498;13.446;2024-01-15T07:05:38;1.20;;;0.75;;
37517;SDS011;23366;52.498;13.446;2024-01-15T07:08:04;4.65;;;1.42;;
37517;SDS011;23366;52.498;13.446;2024-01-15T07:10:30;1.40;;;0.80;;
37517;SDS011;23366;52.498;13.446;2024-01-15T07:12:55;3.53;;;0.80;;
37517;SDS011;23366;52.498;13.446;2024-01-15T07:15:21;7.50;;;2.13;;
37517;SDS011;23366;52.498;13.446;2024-01-15T07:17:47;3.30;;;1.38;;
37517;SDS011;23366;52.498;13.446;2024-01-15T07:20:13;3.08;;;1.60;;
37517;SDS011;23366;52.498;13.446;2024-01-15T07:22:39;3.55;;;1.10;;
37517;SDS011;23366;52.498;13.446;2024-01-15T07:25:05;3.42;;;0.77;;
37517;SDS011;23366;52.498;13.446;2024-01-15T07:27:32;2.33;;;0.85;;
37517;SDS011;23366;52.498;13.446;2024-01-15T07:29:57;5.05;;;0.75;;
37517;SDS011;23366;52.498;13.446;2024-01-15T07:32:23;2.28;;;0.95;;
37517;SDS011;23366;52.498;13.446;2024-01-15T07:34:49;6.30;;;2.78;;
37517;SDS011;23366;52.498;13.446;2024-01-15T07:37:15;2.30;;;1.92;;
37517;SDS011;23366;52.498;13.446;2024-01-15T07:39:41;1.10;;;0.65;;
37517;SDS011;23366;52.498;13.446;2024-01-15T07:42:07;1.85;;;0.88;;
37517;SDS011;23366;52.498;13.446;2024-01-15T07:44:33;6.97;;;1.10;;
37517;SDS011;23366;52.498;13.446;2024-01-15T07:46:59;4.15;;;1.17;;
37517;SDS011;23366;52.498;13.446;2024-01-15T07:49:25;2.17;;;0.98;;
37517;SDS011;23366;52.498;13.446;2024-01-15T07:51:51;1.27;;;1.00;;
37517;SDS011;23366;52.498;13.446;2024-01-15T07:54:17;8.68;;;1.40;;
37517;SDS011;23366;52.498;13.446;2024-01-15T07:59:21;7.43;;;1.77;;
37517;SDS011;23366;52.498;13.446;2024-01-15T08:01:47;8.00;;;1.42;;
37517;SDS011;23366;52.498;13.446;2024-01-15T08:04:13;8.68;;;1.60;;
37517;SDS011;23366;52.498;13.446;2024-01-15T08:06:39;1.38;;;1.08;;
37517;SDS011;23366;52.498;13.446;2024-01-15T08:09:05;3.60;;;1.33;;
37517;SDS011;23366;52.498;13.446;2024-01-15T08:11:31;9.57;;;2.15;;
37517;SDS011;23366;52.498;13.446;2024-01-15T08:13:57;2.28;;;0.85;;
37517;SDS011;23366;52.498;13.446;2024-01-15T08:16:23;6.35;;;1.02;;
37517;SDS011;23366;52.498;13.446;2024-01-15T08:18:50;5.32;;;1.92;;
37517;SDS011;23366;52.498;13.446;2024-01-15T08:21:16;5.72;;;1.10;;
37517;SDS011;23366;52.498;13.446;2024-01-15T08:23:42;4.35;;;0.88;;
37517;SDS011;23366;52.498;13.446;2024-01-15T08:26:08;1.83;;;1.02;;
37517;SDS011;23366;52.498;13.446;2024-01-15T08:28:34;6.50;;;1.33;;
37517;SDS011;23366;52.498;13.446;2024-01-15T08:31:00;4.13;;;1.15;;
37517;SDS011;23366;52.498;13.446;2024-01-15T08:33:26;3.20;;;1.30;;
37517;SDS011;23366;52.498;13.446;2024-01-15T08:35:52;2.63;;;1.00;;
37517;SDS011;23366;52.498;13.446;2024-01-15T08:38:18;3.50;;;1.98;;
37517;SDS011;23366;52.498;13.446;2024-01-15T08:40:44;1.52;;;0.77;;
37517;SDS011;23366;52.498;13.446;2024-01-15T08:43:10;7.93;;;1.25;;
37517;SDS011;23366;52.498;13.446;2024-01-15T08:45:36;9.70;;;1.50;;
37517;SDS011;23366;52.498;13.446;2024-01-15T08:48:02;4.07;;;1.55;;
37517;SDS011;23366;52.498;13.446;2024-01-15T08:50:28;2.28;;;1.60;;
37517;SDS011;23366;52.498;13.446;2024-01-15T08:52:54;3.03;;;1.20;;
37517;SDS011;23366;52.498;13.446;2024-01-15T08:55:20;2.83;;;0.98;;
37517;SDS011;23366;52.498;13.446;2024-01-15T08:57:49;3.85;;;1.15;;
37517;SDS011;23366;52.498;13.446;2024-01-15T09:00:15;1.15;;;0.80;;
37517;SDS011;23366;52.498;13.446;2024-01-15T09:02:42;2.63;;;1.88;;
37517;SDS011;23366;52.498;13.446;2024-01-15T09:05:08;0.85;;;0.80;;
37517;SDS011;23366;52.498;13.446;2024-01-15T09:07:34;5.97;;;1.42;;
37517;SDS011;23366;52.498;13.446;2024-01-15T09:10:00;1.80;;;1.48;;
37517;SDS011;23366;52.498;13.446;2024-01-15T09:12:26;5.25;;;0.85;;
37517;SDS011;23366;52.498;13.446;2024-01-15T09:14:52;5.32;;;1.85;;
37517;SDS011;23366;52.498;13.446;2024-01-15T09:17:18;2.63;;;0.93;;
37517;SDS011;23366;52.498;13.446;2024-01-15T09:19:44;7.43;;;1.60;;
37517;SDS011;23366;52.498;13.446;2024-01-15T09:22:12;4.35;;;1.73;;
37517;SDS011;23366;52.498;13.446;2024-01-15T09:24:40;4.57;;;1.80;;
37517;SDS011;23366;52.498;13.446;2024-01-15T09:27:07;9.90;;;1.80;;
37517;SDS011;23366;52.498;13.446;2024-01-15T09:29:33;6.85;;;1.27;;
37517;SDS011;23366;52.498;13.446;2024-01-15T09:31:59;3.33;;;1.60;;
37517;SDS011;23366;52.498;13.446;2024-01-15T09:34:27;6.75;;;0.95;;
37517;SDS011;23366;52.498;13.446;2024-01-15T09:36:53;2.03;;;0.75;;
37517;SDS011;23366;52.498;13.446;2024-01-15T09:39:19;5.40;;;0.75;;
37517;SDS011;23366;52.498;13.446;2024-01-15T09:41:46;2.85;;;1.45;;
37517;SDS011;23366;52.498;13.446;2024-01-15T09:44:13;9.40;;;1.10;;
37517;SDS011;23366;52.498;13.446;2024-01-15T09:46:39;6.95;;;0.93;;
37517;SDS011;23366;52.498;13.446;2024-01-15T09:49:06;1.20;;;1.08;;
37517;SDS011;23366;52.498;13.446;2024-01-15T09:51:32;1.02;;;0.88;;
37517;SDS011;23366;52.498;13.446;2024-01-15T09:53:58;5.38;;;1.45;;
37517;SDS011;23366;52.498;13.446;2024-01-15T09:56:24;2.33;;;0.93;;
37517;SDS011;23366;52.498;13.446;2024-01-15T09:58:50;9.10;;;2.90;;
37517;SDS011;23366;52.498;13.446;2024-01-15T10:01:17;2.30;;;0.82;;
37517;SDS011;23366;52.498;13.446;2024-01-15T10:03:45;3.92;;;0.80;;
37517;SDS011;23366;52.498;13.446;2024-01-15T10:06:13;4.00;;;1.15;;
37517;SDS011;23366;52.498;13.446;2024-01-15T10:08:42;2.60;;;0.90;;
37517;SDS011;23366;52.498;13.446;2024-01-15T10:11:09;1.73;;;1.02;;
37517;SDS011;23366;52.498;13.446;2024-01-15T10:13:34;7.93;;;1.25;;
37517;SDS011;23366;52.498;13.446;2024-01-15T10:16:00;4.07;;;0.95;;
37517;SDS011;23366;52.498;13.446;2024-01-15T10:18:28;14.55;;;1.77;;
37517;SDS011;23366;52.498;13.446;2024-01-15T10:20:53;7.18;;;1.38;;
37517;SDS011;23366;52.498;13.446;2024-01-15T10:23:19;2.50;;;1.35;;
37517;SDS011;23366;52.498;13.446;2024-01-15T10:25:46;2.40;;;1.00;;
37517;SDS011;23366;52.498;13.446;2024-01-15T10:28:13;6.03;;;1.58;;
37517;SDS011;23366;52.498;13.446;2024-01-15T10:30:39;3.80;;;1.10;;
37517;SDS011;23366;52.498;13.446;2024-01-15T10:33:05;2.40;;;0.80;;
37517;SDS011;23366;52.498;13.446;2024-01-15T10:35:32;1.83;;;1.33;;
37517;SDS011;23366;52.498;13.446;2024-01-15T10:38:01;4.50;;;1.70;;
37517;SDS011;23366;52.498;13.446;2024-01-15T10:40:28;4.68;;;2.05;;
37517;SDS011;23366;52.498;13.446;2024-01-15T10:42:54;2.55;;;1.52;;
37517;SDS011;23366;52.498;13.446;2024-01-15T10:45:20;4.72;;;1.88;;
37517;SDS011;23366;52.498;13.446;2024-01-15T10:47:46;2.42;;;1.98;;
37517;SDS011;23366;52.498;13.446;2024-01-15T10:50:13;2.58;;;1.50;;
37517;SDS011;23366;52.498;13.446;2024-01-15T10:52:40;3.70;;;0.75;;
37517;SDS011;23366;52.498;13.446;2024-01-15T10:55:07;4.25;;;2.03;;
37517;SDS011;23366;52.498;13.446;2024-01-15T10:57:34;4.97;;;1.88;;
37517;SDS011;23366;52.498;13.446;2024-01-15T11:00:00;5.65;;;1.55;;
37517;SDS011;23366;52.498;13.446;2024-01-15T11:02:29;2.50;;;1.58;;
37517;SDS011;23366;52.498;13.446;2024-01-15T11:04:55;7.00;;;1.42;;
37517;SDS011;23366;52.498;13.446;2024-01-15T11:07:21;2.58;;;1.08;;
37517;SDS011;23366;52.498;13.446;2024-01-15T11:09:49;3.42;;;1.42;;
37517;SDS011;23366;52.498;13.446;2024-01-15T11:12:16;2.47;;;1.52;;
37517;SDS011;23366;52.498;13.446;2024-01-15T11:14:46;1.23;;;1.08;;
37517;SDS011;23366;52.498;13.446;2024-01-15T11:17:12;4.30;;;1.17;;
37517;SDS011;23366;52.498;13.446;2024-01-15T11:22:05;2.75;;;1.88;;
37517;SDS011;23366;52.498;13.446;2024-01-15T11:24:34;2.47;;;1.23;;
37517;SDS011;23366;52.498;13.446;2024-01-15T11:27:04;1.63;;;0.90;;
37517;SDS011;23366;52.498;13.446;2024-01-15T11:29:32;1.30;;;0.70;;
37517;SDS011;23366;52.498;13.446;2024-01-15T11:32:00;1.00;;;0.32;;
37517;SDS011;23366;52.498;13.446;2024-01-15T11:37:11;2.05;;;0.82;;
37517;SDS011;23366;52.498;13.446;2024-01-15T11:39:44;1.40;;;0.75;;
37517;SDS011;23366;52.498;13.446;2024-01-15T11:42:11;4.97;;;0.90;;
37517;SDS011;23366;52.498;13.446;2024-01-15T11:44:38;3.13;;;0.88;;
37517;SDS011;23366;52.498;13.446;2024-01-15T11:47:05;1.30;;;0.88;;
37517;SDS011;23366;52.498;13.446;2024-01-15T11:52:16;0.77;;;0.55;;
37517;SDS011;23366;52.498;13.446;2024-01-15T11:54:46;1.20;;;0.98;;
37517;SDS011;23366;52.498;13.446;2024-01-15T11:57:17;2.40;;;0.88;;
37517;SDS011;23366;52.498;13.446;2024-01-15T11:59:44;3.08;;;1.20;;
37517;SDS011;23366;52.498;13.446;2024-01-15T12:02:10;2.88;;;0.82;;
37517;SDS011;23366;52.498;13.446;2024-01-15T12:04:39;0.88;;;0.85;;
37517;SDS011;23366;52.498;13.446;2024-01-15T12:07:05;12.40;;;1.50;;
37517;SDS011;23366;52.498;13.446;2024-01-15T12:09:31;1.13;;;1.02;;
37517;SDS011;23366;52.498;13.446;2024-01-15T12:11:59;4.03;;;1.10;;
37517;SDS011;23366;52.498;13.446;2024-01-15T12:14:30;5.35;;;1.80;;
37517;SDS011;23366;52.498;13.446;2024-01-15T12:16:56;4.07;;;1.60;;
37517;SDS011;23366;52.498;13.446;2024-01-15T12:19:22;3.15;;;1.35;;
37517;SDS011;23366;52.498;13.446;2024-01-15T12:21:50;3.42;;;1.95;;
37517;SDS011;23366;52.498;13.446;2024-01-15T12:24:16;5.22;;;2.70;;
37517;SDS011;23366;52.498;13.446;2024-01-15T12:26:42;8.15;;;2.42;;
37517;SDS011;23366;52.498;13.446;2024-01-15T12:29:08;4.60;;;1.70;;
37517;SDS011;23366;52.498;13.446;2024-01-15T12:31:34;1.98;;;1.48;;
37517;SDS011;23366;52.498;13.446;2024-01-15T12:34:01;3.05;;;1.33;;
37517;SDS011;23366;52.498;13.446;2024-01-15T12:36:30;4.03;;;1.67;;
37517;SDS011;23366;52.498;13.446;2024-01-15T12:38:59;3.33;;;1.70;;
37517;SDS011;23366;52.498;13.446;2024-01-15T12:41:25;2.40;;;1.80;;
37517;SDS011;23366;52.498;13.446;2024-01-15T12:43:51;5.32;;;1.95;;
37517;SDS011;23366;52.498;13.446;2024-01-15T12:46:17;5.57;;;1.90;;
37517;SDS011;23366;52.498;13.446;2024-01-15T12:48:44;1.83;;;1.00;;
37517;SDS011;23366;52.498;13.446;2024-01-15T12:51:10;3.70;;;1.85;;
37517;SDS011;23366;52.498;13.446;2024-01-15T12:53:36;1.98;;;1.20;;
37517;SDS011;23366;52.498;13.446;2024-01-15T12:56:03;1.27;;;1.02;;
37517;SDS011;23366;52.498;13.446;2024-01-15T12:58:29;3.13;;;0.75;;
37517;SDS011;23366;52.498;13.446;2024-01-15T13:00:55;1.40;;;1.30;;
37517;SDS011;23366;52.498;13.446;2024-01-15T13:03:22;1.85;;;1.33;;
37517;SDS011;23366;52.498;13.446;2024-01-15T13:05:48;2.47;;;1.05;;
37517;SDS011;23366;52.498;13.446;2024-01-15T13:08:14;4.53;;;1.20;;
37517;SDS011;23366;52.498;13.446;2024-01-15T13:10:40;4.13;;;1.15;;
37517;SDS011;23366;52.498;13.446;2024-01-15T13:13:07;1.10;;;1.08;;
37517;SDS011;23366;52.498;13.446;2024-01-15T13:15:33;2.38;;;1.48;;
37517;SDS011;23366;52.498;13.446;2024-01-15T13:17:59;3.17;;;1.45;;
37517;SDS011;23366;52.498;13.446;2024-01-15T13:20:25;4.78;;;1.13;;
37517;SDS011;23366;52.498;13.446;2024-01-15T13:22:51;1.30;;;0.75;;
37517;SDS011;23366;52.498;13.446;2024-01-15T13:25:17;0.95;;;0.82;;
37517;SDS011;23366;52.498;13.446;2024-01-15T13:27:42;1.65;;;1.20;;
37517;SDS011;23366;52.498;13.446;2024-01-15T13:30:09;1.60;;;0.85;;
37517;SDS011;23366;52.498;13.446;2024-01-15T13:32:36;4.63;;;1.48;;
37517;SDS011;23366;52.498;13.446;2024-01-15T13:35:02;1.67;;;1.35;;
37517;SDS011;23366;52.498;13.446;2024-01-15T13:37:30;2.10;;;1.63;;
37517;SDS011;23366;52.498;13.446;2024-01-15T13:39:56;2.08;;;1.00;;
37517;SDS011;23366;52.498;13.446;2024-01-15T13:42:23;1.33;;;1.10;;
37517;SDS011;23366;52.498;13.446;2024-01-15T13:44:49;1.13;;;0.90;;
37517;SDS011;23366;52.498;13.446;2024-01-15T13:47:15;1.80;;;1.02;;
37517;SDS011;23366;52.498;13.446;2024-01-15T13:49:41;2.10;;;0.95;;
37517;SDS011;23366;52.498;13.446;2024-01-15T13:52:07;1.60;;;1.23;;
37517;SDS011;23366;52.498;13.446;2024-01-15T13:54:33;2.17;;;1.02;;
37517;SDS011;23366;52.498;13.446;2024-01-15T13:56:59;2.72;;;1.65;;
37517;SDS011;23366;52.498;13.446;2024-01-15T13:59:26;0.60;;;0.60;;
37517;SDS011;23366;52.498;13.446;2024-01-15T14:01:52;2.78;;;1.15;;
37517;SDS011;23366;52.498;13.446;2024-01-15T14:04:17;2.92;;;2.13;;
37517;SDS011;23366;52.498;13.446;2024-01-15T14:06:44;4.07;;;1.23;;
37517;SDS011;23366;52.498;13.446;2024-01-15T14:09:10;7.03;;;1.60;;
37517;SDS011;23366;52.498;13.446;2024-01-15T14:11:39;1.70;;;1.50;;
37517;SDS011;23366;52.498;13.446;2024-01-15T14:14:05;5.35;;;2.15;;
37517;SDS011;23366;52.498;13.446;2024-01-15T14:16:32;4.85;;;1.63;;
37517;SDS011;23366;52.498;13.446;2024-01-15T14:18:58;4.88;;;1.33;;
37517;SDS011;23366;52.498;13.446;2024-01-15T14:21:24;2.50;;;1.42;;
37517;SDS011;23366;52.498;13.446;2024-01-15T14:23:50;2.58;;;1.15;;
37517;SDS011;23366;52.498;13.446;2024-01-15T14:26:16;5.45;;;3.53;;
37517;SDS011;23366;52.498;13.446;2024-01-15T14:28:42;10.82;;;2.80;;
37517;SDS011;23366;52.498;13.446;2024-01-15T14:31:08;2.35;;;1.02;;
37517;SDS011;23366;52.498;13.446;2024-01-15T14:33:34;4.18;;;1.58;;
37517;SDS011;23366;52.498;13.446;2024-01-15T14:36:00;3.25;;;1.05;;
37517;SDS011;23366;52.498;13.446;2024-01-15T14:38:26;5.00;;;2.30;;
37517;SDS011;23366;52.498;13.446;2024-01-15T14:40:52;3.20;;;1.13;;